createdAt,value
2018-05-29T00:01:03.797Z,22.51
2018-05-29T00:03:31.607Z,22.47
2018-05-29T00:05:59.801Z,22.41
2018-05-29T00:08:27.378Z,22.35
2018-05-29T00:10:54.988Z,22.30
2018-05-29T00:13:22.659Z,22.28
2018-05-29T00:15:50.227Z,22.30
2018-05-29T00:18:17.917Z,22.26
2018-05-29T00:20:45.492Z,22.25
2018-05-29T00:23:13.070Z,22.24
2018-05-29T00:25:40.740Z,22.22
2018-05-29T00:28:08.581Z,22.19
2018-05-29T00:30:36.241Z,22.19
2018-05-29T00:33:03.816Z,22.14
2018-05-29T00:35:31.531Z,22.10
2018-05-29T00:37:59.107Z,22.14
2018-05-29T00:40:26.682Z,22.06
2018-05-29T00:42:54.290Z,22.04
2018-05-29T00:45:21.861Z,21.97
2018-05-29T00:47:49.771Z,21.95
2018-05-29T00:50:17.355Z,21.91
2018-05-29T00:52:57.839Z,21.90
2018-05-29T00:55:37.079Z,21.86
2018-05-29T00:58:04.696Z,21.81
2018-05-29T01:00:32.659Z,21.79
2018-05-29T01:03:00.230Z,21.80
2018-05-29T01:05:27.800Z,21.79
2018-05-29T01:07:55.413Z,21.79
2018-05-29T01:10:22.996Z,21.78
2018-05-29T01:15:43.459Z,21.77
2018-05-29T01:18:11.442Z,21.76
2018-05-29T01:20:39.030Z,21.77
2018-05-29T01:23:06.594Z,21.76
2018-05-29T01:25:34.248Z,21.76
2018-05-29T01:28:01.848Z,21.76
2018-05-29T01:30:29.474Z,21.73
2018-05-29T01:33:05.061Z,21.74
2018-05-29T01:35:32.660Z,21.75
2018-05-29T01:38:00.536Z,21.72
2018-05-29T01:40:28.134Z,21.73
2018-05-29T01:42:55.767Z,21.71
2018-05-29T01:45:23.712Z,21.70
2018-05-29T01:47:51.305Z,21.68
2018-05-29T01:50:18.886Z,21.69
2018-05-29T01:52:46.733Z,21.66
2018-05-29T01:55:14.338Z,21.66
2018-05-29T01:57:42.084Z,21.62
2018-05-29T02:00:10.072Z,21.61
2018-05-29T02:02:37.742Z,21.57
2018-05-29T02:05:05.313Z,21.59
2018-05-29T02:07:33.449Z,21.56
2018-05-29T02:10:01.030Z,21.54
2018-05-29T02:12:28.601Z,21.57
2018-05-29T02:14:56.462Z,21.54
2018-05-29T02:17:24.052Z,21.54
2018-05-29T02:19:51.778Z,21.53
2018-05-29T02:22:19.409Z,21.51
2018-05-29T02:24:46.997Z,21.51
2018-05-29T02:27:14.584Z,21.52
2018-05-29T02:29:42.258Z,21.54
2018-05-29T02:32:10.088Z,21.55
2018-05-29T02:34:37.670Z,21.56
2018-05-29T02:37:05.320Z,21.55
2018-05-29T02:39:32.915Z,21.55
2018-05-29T02:42:00.556Z,21.54
2018-05-29T02:44:28.550Z,21.50
2018-05-29T02:46:56.124Z,21.50
2018-05-29T02:49:23.995Z,21.48
2018-05-29T02:51:51.649Z,21.48
2018-05-29T02:54:19.520Z,21.48
2018-05-29T02:56:47.220Z,21.45
2018-05-29T02:59:14.804Z,21.43
2018-05-29T03:01:42.784Z,21.38
2018-05-29T03:04:10.426Z,21.35
2018-05-29T03:06:38.342Z,21.35
2018-05-29T03:09:06.823Z,21.29
2018-05-29T03:11:34.491Z,21.26
2018-05-29T03:14:02.597Z,21.24
2018-05-29T03:16:30.287Z,21.23
2018-05-29T03:18:57.864Z,21.18
2018-05-29T03:21:25.516Z,21.14
2018-05-29T03:23:53.093Z,21.11
2018-05-29T03:26:20.920Z,21.10
2018-05-29T03:28:48.570Z,21.08
2018-05-29T03:31:16.265Z,21.07
2018-05-29T03:33:43.919Z,21.05
2018-05-29T03:36:11.864Z,21.03
2018-05-29T03:38:39.427Z,21.01
2018-05-29T03:41:07.008Z,21.01
2018-05-29T03:43:35.117Z,20.99
2018-05-29T03:46:02.693Z,20.94
2018-05-29T03:48:30.267Z,20.91
2018-05-29T03:50:58.012Z,20.87
2018-05-29T03:53:25.584Z,20.83
2018-05-29T03:55:53.431Z,20.77
2018-05-29T03:58:21.031Z,20.77
2018-05-29T04:00:48.623Z,20.77
2018-05-29T04:03:16.557Z,20.79
2018-05-29T04:05:44.131Z,20.78
2018-05-29T04:08:11.757Z,20.79
2018-05-29T04:10:39.602Z,20.77
2018-05-29T04:13:07.174Z,20.74
2018-05-29T04:15:34.771Z,20.73
2018-05-29T04:18:02.408Z,20.74
2018-05-29T04:20:30.331Z,20.74
2018-05-29T04:22:57.911Z,20.73
2018-05-29T04:25:25.525Z,20.77
2018-05-29T04:27:53.604Z,20.80
2018-05-29T04:30:21.180Z,20.82
2018-05-29T04:32:49.044Z,20.82
2018-05-29T04:35:16.641Z,20.83
2018-05-29T04:37:44.604Z,20.83
2018-05-29T04:40:12.265Z,20.84
2018-05-29T04:42:39.830Z,20.85
2018-05-29T04:45:08.081Z,20.85
2018-05-29T04:47:35.719Z,20.86
2018-05-29T04:50:03.287Z,20.87
2018-05-29T04:52:31.277Z,20.87
2018-05-29T04:54:58.923Z,20.87
2018-05-29T04:57:26.502Z,20.87
2018-05-29T04:59:54.106Z,20.92
2018-05-29T05:02:21.940Z,20.94
2018-05-29T05:04:50.220Z,20.93
2018-05-29T05:07:18.040Z,20.95
2018-05-29T05:09:45.851Z,21.02
2018-05-29T05:12:13.446Z,21.04
2018-05-29T05:14:41.046Z,21.08
2018-05-29T05:17:08.679Z,21.12
2018-05-29T05:19:36.555Z,21.12
2018-05-29T05:22:04.206Z,21.13
2018-05-29T05:24:31.788Z,21.19
2018-05-29T05:26:59.688Z,21.24
2018-05-29T05:29:27.342Z,21.30
2018-05-29T05:31:54.990Z,21.36
2018-05-29T05:34:22.559Z,21.44
2018-05-29T05:36:50.181Z,21.53
2018-05-29T05:39:17.794Z,21.58
2018-05-29T05:41:45.934Z,21.65
2018-05-29T05:44:13.651Z,21.70
2018-05-29T05:46:41.226Z,21.73
2018-05-29T05:49:08.819Z,21.77
2018-05-29T05:51:36.846Z,21.83
2018-05-29T05:54:04.429Z,21.89
2018-05-29T05:56:32.099Z,21.93
2018-05-29T05:58:59.714Z,21.99
2018-05-29T06:01:27.301Z,22.07
2018-05-29T06:03:55.257Z,22.14
2018-05-29T06:06:22.846Z,22.23
2018-05-29T06:08:50.427Z,22.31
2018-05-29T06:11:18.578Z,22.40
2018-05-29T06:13:46.216Z,22.46
2018-05-29T06:16:13.813Z,22.57
2018-05-29T06:18:41.573Z,22.66
2018-05-29T06:21:09.720Z,22.74
2018-05-29T06:23:37.285Z,22.81
2018-05-29T06:26:04.946Z,22.91
2018-05-29T06:28:32.931Z,22.97
2018-05-29T06:31:00.581Z,23.00
2018-05-29T06:33:28.171Z,23.08
2018-05-29T06:35:55.850Z,23.24
2018-05-29T06:38:23.817Z,23.34
2018-05-29T06:40:51.417Z,23.40
2018-05-29T06:43:18.999Z,23.48
2018-05-29T06:45:46.740Z,23.58
2018-05-29T06:48:14.341Z,23.61
2018-05-29T06:50:41.971Z,23.68
2018-05-29T06:53:09.657Z,23.76
2018-05-29T06:55:37.307Z,23.87
2018-05-29T06:58:04.901Z,23.98
2018-05-29T07:00:32.508Z,24.07
2018-05-29T07:03:00.127Z,24.15
2018-05-29T07:05:28.296Z,24.30
2018-05-29T07:07:56.187Z,24.31
2018-05-29T07:10:24.055Z,24.42
2018-05-29T07:12:51.669Z,24.53
2018-05-29T07:15:19.557Z,24.64
2018-05-29T07:17:47.138Z,24.76
2018-05-29T07:20:14.746Z,24.89
2018-05-29T07:22:42.785Z,24.96
2018-05-29T07:25:10.433Z,25.03
2018-05-29T07:27:38.320Z,25.15
2018-05-29T07:30:05.957Z,25.21
2018-05-29T07:32:34.012Z,25.29
2018-05-29T07:35:01.601Z,25.41
2018-05-29T07:37:29.191Z,25.52
2018-05-29T07:39:57.188Z,25.68
2018-05-29T07:42:24.771Z,25.76
2018-05-29T07:44:52.372Z,25.88
2018-05-29T07:47:20.389Z,26.05
2018-05-29T07:49:48.048Z,26.15
2018-05-29T07:52:15.843Z,26.19
2018-05-29T07:54:43.512Z,26.28
2018-05-29T07:57:11.771Z,26.32
2018-05-29T07:59:40.241Z,26.41
2018-05-29T08:02:07.821Z,26.50
2018-05-29T08:04:35.756Z,26.63
2018-05-29T08:07:03.350Z,26.73
2018-05-29T08:09:30.927Z,26.84
2018-05-29T08:11:58.684Z,27.02
2018-05-29T08:14:26.309Z,27.17
2018-05-29T08:16:54.248Z,27.30
2018-05-29T08:19:22.188Z,27.46
2018-05-29T08:21:49.900Z,27.64
2018-05-29T08:24:17.617Z,27.74
2018-05-29T08:26:45.277Z,27.80
2018-05-29T08:29:13.039Z,27.90
2018-05-29T08:31:41.527Z,28.06
2018-05-29T08:34:09.125Z,28.17
2018-05-29T08:36:36.722Z,28.15
2018-05-29T08:39:04.418Z,28.28
2018-05-29T08:41:32.033Z,28.38
2018-05-29T08:43:59.945Z,28.47
2018-05-29T08:46:28.020Z,28.61
2018-05-29T08:48:55.773Z,28.76
2018-05-29T08:51:23.394Z,28.91
2018-05-29T08:53:51.012Z,28.99
2018-05-29T08:56:18.752Z,29.08
2018-05-29T08:58:46.781Z,29.03
2018-05-29T09:01:14.436Z,29.20
2018-05-29T09:03:42.026Z,29.32
2018-05-29T09:06:09.774Z,29.36
2018-05-29T09:08:37.381Z,29.49
2018-05-29T09:11:05.210Z,29.56
2018-05-29T09:13:32.829Z,29.64
2018-05-29T09:16:00.449Z,29.77
2018-05-29T09:18:28.545Z,29.94
2018-05-29T09:20:56.200Z,30.06
2018-05-29T09:23:23.805Z,30.18
2018-05-29T09:25:51.645Z,30.28
2018-05-29T09:28:19.533Z,30.44
2018-05-29T09:30:47.182Z,30.61
2018-05-29T09:33:14.830Z,30.69
2018-05-29T09:35:42.454Z,30.82
2018-05-29T09:38:10.043Z,30.92
2018-05-29T09:40:37.718Z,31.08
2018-05-29T09:43:05.603Z,31.24
2018-05-29T09:45:33.233Z,31.40
2018-05-29T09:48:00.829Z,31.46
2018-05-29T09:50:28.499Z,31.44
2018-05-29T09:52:56.235Z,31.39
2018-05-29T09:55:23.877Z,31.35
2018-05-29T09:57:51.466Z,31.49
2018-05-29T10:00:24.622Z,31.66
2018-05-29T10:02:52.511Z,31.77
2018-05-29T10:05:20.347Z,31.92
2018-05-29T10:07:47.958Z,32.09
2018-05-29T10:10:15.600Z,32.26
2018-05-29T10:12:43.234Z,32.10
2018-05-29T10:15:10.939Z,32.23
2018-05-29T10:17:38.538Z,32.33
2018-05-29T10:20:06.601Z,32.42
2018-05-29T10:22:34.245Z,32.56
2018-05-29T10:25:01.817Z,32.68
2018-05-29T10:27:29.786Z,32.82
2018-05-29T10:29:57.374Z,32.67
2018-05-29T10:32:25.010Z,32.92
2018-05-29T10:34:52.675Z,33.05
2018-05-29T10:37:20.323Z,32.94
2018-05-29T10:39:47.937Z,32.94
2018-05-29T10:42:15.844Z,33.09
2018-05-29T10:44:43.445Z,33.22
2018-05-29T10:47:11.127Z,33.33
2018-05-29T10:49:38.841Z,33.42
2018-05-29T10:52:06.923Z,33.43
2018-05-29T10:54:34.503Z,33.63
2018-05-29T10:57:02.122Z,33.70
2018-05-29T10:59:29.708Z,33.63
2018-05-29T11:01:57.324Z,33.91
2018-05-29T11:04:24.918Z,34.16
2018-05-29T11:06:52.538Z,34.29
2018-05-29T11:09:20.213Z,34.33
2018-05-29T11:11:47.927Z,34.48
2018-05-29T11:14:15.595Z,34.30
2018-05-29T11:16:43.213Z,34.40
2018-05-29T11:19:11.216Z,34.39
2018-05-29T11:24:31.290Z,33.95
2018-05-29T11:26:58.937Z,33.70
2018-05-29T11:29:26.538Z,33.86
2018-05-29T11:31:54.262Z,34.11
2018-05-29T11:34:22.109Z,34.47
2018-05-29T11:36:49.704Z,34.85
2018-05-29T11:39:17.413Z,34.90
2018-05-29T11:41:45.257Z,34.99
2018-05-29T11:44:13.093Z,35.22
2018-05-29T11:46:40.779Z,35.46
2018-05-29T11:49:08.488Z,35.60
2018-05-29T11:51:36.120Z,35.81
2018-05-29T11:54:03.979Z,35.95
2018-05-29T11:56:31.573Z,35.88
2018-05-29T11:58:59.597Z,35.62
2018-05-29T12:01:27.170Z,35.49
2018-05-29T12:03:54.740Z,35.66
2018-05-29T12:06:22.376Z,35.91
2018-05-29T12:08:49.978Z,36.12
2018-05-29T12:11:18.037Z,36.35
2018-05-29T12:13:45.656Z,36.54
2018-05-29T12:16:13.498Z,36.58
2018-05-29T12:18:41.600Z,36.56
2018-05-29T12:21:09.184Z,36.40
2018-05-29T12:23:37.050Z,36.40
2018-05-29T12:26:04.970Z,36.54
2018-05-29T12:28:32.596Z,36.66
2018-05-29T12:31:00.217Z,36.58
2018-05-29T12:33:27.875Z,36.17
2018-05-29T12:35:55.873Z,35.84
2018-05-29T12:38:23.655Z,35.85
2018-05-29T12:40:51.247Z,35.82
2018-05-29T12:43:19.260Z,35.89
2018-05-29T12:45:46.892Z,36.14
2018-05-29T12:48:14.539Z,36.40
2018-05-29T12:50:42.843Z,36.67
2018-05-29T12:53:10.433Z,36.76
2018-05-29T12:55:38.034Z,36.74
2018-05-29T12:58:05.677Z,36.86
2018-05-29T13:00:33.318Z,37.04
2018-05-29T13:03:00.949Z,37.00
2018-05-29T13:05:29.410Z,37.11
2018-05-29T13:07:57.359Z,37.23
2018-05-29T13:10:24.952Z,37.10
2018-05-29T13:12:52.596Z,37.17
2018-05-29T13:15:20.225Z,36.99
2018-05-29T13:17:47.890Z,36.97
2018-05-29T13:20:15.504Z,37.03
2018-05-29T13:22:43.141Z,37.30
2018-05-29T13:25:10.765Z,37.42
2018-05-29T13:27:38.789Z,37.45
2018-05-29T13:30:06.450Z,37.19
2018-05-29T13:32:34.063Z,37.21
2018-05-29T13:35:02.035Z,37.06
2018-05-29T13:37:29.963Z,36.30
2018-05-29T13:39:58.011Z,35.99
2018-05-29T13:42:25.972Z,35.65
2018-05-29T13:44:53.803Z,35.76
2018-05-29T13:47:21.443Z,35.76
2018-05-29T13:49:49.289Z,36.02
2018-05-29T13:52:16.927Z,36.11
2018-05-29T13:54:44.581Z,35.85
2018-05-29T13:57:12.437Z,35.75
2018-05-29T13:59:40.075Z,35.99
2018-05-29T14:02:08.560Z,36.34
2018-05-29T14:04:36.175Z,36.54
2018-05-29T14:07:03.771Z,36.57
2018-05-29T14:09:32.061Z,36.24
2018-05-29T14:11:59.775Z,35.75
2018-05-29T14:14:27.371Z,35.68
2018-05-29T14:16:54.991Z,35.88
2018-05-29T14:19:22.649Z,36.20
2018-05-29T14:21:50.487Z,36.36
2018-05-29T14:24:18.107Z,36.70
2018-05-29T14:26:45.701Z,36.99
2018-05-29T14:29:13.639Z,37.20
2018-05-29T14:31:41.221Z,37.22
2018-05-29T14:34:08.834Z,36.97
2018-05-29T14:36:37.022Z,36.63
2018-05-29T14:39:07.433Z,36.69
2018-05-29T14:41:35.025Z,36.89
2018-05-29T14:44:03.195Z,37.16
2018-05-29T14:46:31.016Z,37.15
2018-05-29T14:48:58.925Z,37.20
2018-05-29T14:51:27.153Z,37.20
2018-05-29T14:53:54.756Z,36.88
2018-05-29T14:56:22.661Z,36.34
2018-05-29T14:58:50.737Z,35.99
2018-05-29T15:01:18.339Z,35.84
2018-05-29T15:03:45.940Z,35.76
2018-05-29T15:06:14.013Z,35.86
2018-05-29T15:08:41.684Z,36.01
2018-05-29T15:11:09.313Z,35.89
2018-05-29T15:13:37.284Z,35.82
2018-05-29T15:16:04.879Z,35.53
2018-05-29T15:18:32.566Z,35.50
2018-05-29T15:21:00.203Z,35.55
2018-05-29T15:23:27.811Z,35.75
2018-05-29T15:25:55.433Z,35.78
2018-05-29T15:28:23.316Z,35.93
2018-05-29T15:30:50.952Z,36.06
2018-05-29T15:33:18.547Z,36.11
2018-05-29T15:35:46.379Z,36.18
2018-05-29T15:38:13.992Z,36.04
2018-05-29T15:40:41.940Z,35.88
2018-05-29T15:43:09.531Z,35.74
2018-05-29T15:45:37.148Z,35.50
2018-05-29T15:48:05.080Z,35.56
2018-05-29T15:50:33.907Z,35.70
2018-05-29T15:53:02.016Z,35.75
2018-05-29T15:55:29.734Z,35.67
2018-05-29T15:57:57.427Z,35.48
2018-05-29T16:00:25.017Z,35.21
2018-05-29T16:02:53.044Z,34.98
2018-05-29T16:05:20.643Z,34.63
2018-05-29T16:07:48.341Z,34.38
2018-05-29T16:10:15.999Z,34.13
2018-05-29T16:12:43.612Z,34.00
2018-05-29T16:15:11.225Z,33.93
2018-05-29T16:17:39.208Z,33.91
2018-05-29T16:20:06.803Z,33.91
2018-05-29T16:22:34.379Z,33.93
2018-05-29T16:25:01.991Z,33.88
2018-05-29T16:27:29.583Z,33.71
2018-05-29T16:29:57.463Z,33.53
2018-05-29T16:32:25.038Z,33.49
2018-05-29T16:34:52.642Z,33.49
2018-05-29T16:37:20.191Z,33.53
2018-05-29T16:39:47.767Z,33.47
2018-05-29T16:42:15.394Z,33.38
2018-05-29T16:44:42.974Z,33.40
2018-05-29T16:47:10.647Z,32.41
2018-05-29T16:49:38.492Z,31.31
2018-05-29T16:52:06.087Z,30.68
2018-05-29T16:54:34.000Z,30.45
2018-05-29T16:57:01.617Z,30.21
2018-05-29T16:59:29.266Z,29.80
2018-05-29T17:01:56.871Z,29.60
2018-05-29T17:04:24.484Z,29.53
2018-05-29T17:06:52.139Z,29.37
2018-05-29T17:09:19.756Z,29.21
2018-05-29T17:11:47.413Z,29.21
2018-05-29T17:14:15.135Z,29.09
2018-05-29T17:16:42.754Z,29.03
2018-05-29T17:19:10.428Z,28.99
2018-05-29T17:21:38.392Z,28.97
2018-05-29T17:24:05.989Z,28.90
2018-05-29T17:26:33.955Z,28.94
2018-05-29T17:29:01.587Z,28.85
2018-05-29T17:31:29.390Z,28.85
2018-05-29T17:33:56.983Z,28.87
2018-05-29T17:36:24.827Z,28.86
2018-05-29T17:38:52.777Z,28.83
2018-05-29T17:41:20.374Z,28.84
2018-05-29T17:43:48.066Z,28.85
2018-05-29T17:46:15.711Z,28.81
2018-05-29T17:48:43.950Z,28.73
2018-05-29T17:51:11.794Z,28.65
2018-05-29T17:53:39.440Z,28.53
2018-05-29T17:56:07.462Z,28.50
2018-05-29T17:58:35.337Z,28.46
2018-05-29T18:01:02.947Z,28.32
2018-05-29T18:03:30.946Z,28.29
2018-05-29T18:05:58.553Z,28.30
2018-05-29T18:08:26.187Z,28.34
2018-05-29T18:10:53.949Z,28.30
2018-05-29T18:13:21.624Z,27.60
2018-05-29T18:15:49.589Z,27.00
2018-05-29T18:18:17.507Z,26.48
2018-05-29T18:20:45.167Z,25.83
2018-05-29T18:23:12.846Z,25.23
2018-05-29T18:25:40.422Z,24.75
2018-05-29T18:28:07.980Z,24.15
2018-05-29T18:30:35.597Z,23.87
2018-05-29T18:33:03.206Z,23.49
2018-05-29T18:35:31.215Z,23.37
2018-05-29T18:37:58.784Z,23.26
2018-05-29T18:40:26.357Z,23.20
2018-05-29T18:42:54.248Z,23.19
2018-05-29T18:45:22.810Z,23.01
2018-05-29T18:47:50.371Z,22.82
2018-05-29T18:50:18.208Z,22.78
2018-05-29T18:52:45.868Z,22.81
2018-05-29T18:55:13.439Z,22.85
2018-05-29T18:57:41.144Z,22.83
2018-05-29T19:00:08.744Z,22.77
2018-05-29T19:02:36.774Z,22.72
2018-05-29T19:05:04.333Z,22.66
2018-05-29T19:07:31.903Z,22.64
2018-05-29T19:09:59.677Z,22.61
2018-05-29T19:12:27.327Z,22.50
2018-05-29T19:14:54.972Z,22.49
2018-05-29T19:17:22.572Z,22.44
2018-05-29T19:19:50.219Z,22.49
2018-05-29T19:22:17.844Z,22.52
2018-05-29T19:24:45.418Z,22.59
2018-05-29T19:27:13.154Z,22.64
2018-05-29T19:29:40.717Z,22.68
2018-05-29T19:32:08.609Z,22.79
2018-05-29T19:34:36.877Z,22.87
2018-05-29T19:37:04.477Z,22.90
2018-05-29T19:39:32.343Z,22.96
2018-05-29T19:42:00.192Z,23.00
2018-05-29T19:44:28.153Z,23.02
2018-05-29T19:46:55.885Z,23.06
2018-05-29T19:49:23.748Z,23.02
2018-05-29T19:51:51.566Z,23.03
2018-05-29T19:54:19.259Z,23.04
2018-05-29T19:56:46.838Z,23.06
2018-05-29T19:59:14.836Z,23.03
2018-05-29T20:01:42.585Z,23.00
2018-05-29T20:04:10.176Z,23.02
2018-05-29T20:06:37.857Z,23.03
2018-05-29T20:09:06.382Z,23.03
2018-05-29T20:11:34.465Z,23.02
2018-05-29T20:14:02.067Z,23.02
2018-05-29T20:16:29.791Z,23.03
2018-05-29T20:18:57.870Z,23.04
2018-05-29T20:21:25.479Z,22.94
2018-05-29T20:23:53.287Z,22.83
2018-05-29T20:26:21.115Z,22.64
2018-05-29T20:28:48.688Z,22.47
2018-05-29T20:31:16.661Z,22.34
2018-05-29T20:33:44.462Z,22.28
2018-05-29T20:36:12.036Z,22.24
2018-05-29T20:38:39.743Z,22.17
2018-05-29T20:41:07.529Z,22.13
2018-05-29T20:43:35.158Z,22.12
2018-05-29T20:46:02.753Z,22.11
2018-05-29T20:48:30.334Z,22.13
2018-05-29T20:50:58.225Z,22.14
2018-05-29T20:53:26.077Z,22.20
2018-05-29T20:55:53.654Z,22.21
2018-05-29T20:58:21.593Z,22.20
2018-05-29T21:00:49.161Z,22.20
2018-05-29T21:03:16.720Z,22.22
2018-05-29T21:05:44.644Z,22.25
2018-05-29T21:08:12.212Z,22.26
2018-05-29T21:10:39.781Z,22.28
2018-05-29T21:13:07.605Z,22.31
2018-05-29T21:15:35.238Z,22.35
2018-05-29T21:18:03.132Z,22.37
2018-05-29T21:20:30.695Z,22.37
2018-05-29T21:22:58.502Z,22.41
2018-05-29T21:25:26.147Z,22.42
2018-05-29T21:27:53.722Z,22.44
2018-05-29T21:30:21.316Z,22.47
2018-05-29T21:32:48.927Z,22.49
2018-05-29T21:35:16.779Z,22.46
2018-05-29T21:37:44.360Z,22.44
2018-05-29T21:40:12.188Z,22.44
2018-05-29T21:42:40.769Z,22.42
2018-05-29T21:45:08.853Z,22.41
2018-05-29T21:47:36.419Z,22.44
2018-05-29T21:50:03.975Z,22.45
2018-05-29T21:52:31.940Z,22.45
2018-05-29T21:54:59.504Z,22.45
2018-05-29T21:57:27.151Z,22.46
2018-05-29T21:59:55.091Z,22.48
2018-05-29T22:02:22.716Z,22.45
2018-05-29T22:04:50.285Z,22.43
2018-05-29T22:07:17.881Z,22.40
2018-05-29T22:09:45.478Z,22.36
2018-05-29T22:12:13.054Z,22.33
2018-05-29T22:14:40.655Z,22.34
2018-05-29T22:17:08.500Z,22.31
2018-05-29T22:19:36.127Z,22.30
2018-05-29T22:22:03.735Z,22.30
2018-05-29T22:24:31.749Z,22.24
2018-05-29T22:26:59.319Z,22.19
2018-05-29T22:29:26.940Z,22.14
2018-05-29T22:31:54.528Z,22.10
2018-05-29T22:34:22.328Z,22.06
2018-05-29T22:36:49.920Z,22.05
2018-05-29T22:39:17.546Z,22.06
2018-05-29T22:41:45.192Z,22.05
2018-05-29T22:44:12.887Z,22.02
2018-05-29T22:46:40.457Z,22.02
2018-05-29T22:49:08.261Z,21.98
2018-05-29T22:51:36.084Z,21.92
2018-05-29T22:54:03.674Z,21.88
2018-05-29T22:56:31.267Z,21.86
2018-05-29T22:58:58.895Z,21.85
2018-05-29T23:01:26.724Z,21.86
2018-05-29T23:03:54.348Z,21.86
2018-05-29T23:06:22.049Z,21.84
2018-05-29T23:08:49.636Z,21.80
2018-05-29T23:11:17.278Z,21.76
2018-05-29T23:13:44.872Z,21.75
2018-05-29T23:16:12.513Z,21.73
2018-05-29T23:18:40.593Z,21.73
2018-05-29T23:21:08.401Z,21.71
2018-05-29T23:23:35.981Z,21.67
2018-05-29T23:26:04.024Z,21.62
2018-05-29T23:28:31.599Z,21.62
2018-05-29T23:30:59.168Z,21.57
2018-05-29T23:33:26.760Z,21.52
2018-05-29T23:35:54.333Z,21.46
2018-05-29T23:38:22.165Z,21.44
2018-05-29T23:40:49.799Z,21.40
2018-05-29T23:43:17.640Z,21.36
2018-05-29T23:45:45.251Z,21.33
2018-05-29T23:48:13.068Z,21.33
2018-05-29T23:50:40.726Z,21.35
2018-05-29T23:53:08.431Z,21.33
2018-05-29T23:55:36.243Z,21.32
2018-05-29T23:58:03.845Z,21.35
